Time;durP1;ratioP1;P1;durP2;ratioP2;P2;SDS_P1;SDS_P2;PMS_P1;PMS_P2;Temp;Humidity;BMP_temperature;BMP_pressure;BME280_temperature;BME280_humidity;BME280_pressure;Samples;Min_cycle;Max_cycle;Signal;HPM_P1;HPM_P2
2022/12/31 00:00:58;;;;;;;67.17;33.20;;;;;;;2.75;100.00;98920.23;2188646;81;21293;-58
2022/12/31 00:04:01;;;;;;;68.72;33.25;;;;;;;2.76;100.00;98921.09;2171948;81;21547;-59
2022/12/31 00:07:02;;;;;;;67.27;33.92;;;;;;;2.76;100.00;98920.64;2188862;81;20984;-58
2022/12/31 00:10:04;;;;;;;67.53;32.13;;;;;;;2.81;100.00;98919.21;2188873;81;21464;-58
2022/12/31 00:13:05;;;;;;;66.02;31.77;;;;;;;2.84;100.00;98915.69;2188997;81;20949;-58
2022/12/31 00:16:07;;;;;;;70.55;33.10;;;;;;;2.81;100.00;98915.33;2188811;81;21012;-59
2022/12/31 00:19:08;;;;;;;64.23;31.33;;;;;;;2.78;100.00;98915.41;2189215;81;20989;-58
2022/12/31 00:22:10;;;;;;;66.75;31.23;;;;;;;2.78;100.00;98920.59;2188719;81;20989;-58
2022/12/31 00:25:11;;;;;;;66.28;31.17;;;;;;;2.84;100.00;98919.58;2188997;81;21019;-58
2022/12/31 00:28:13;;;;;;;64.53;31.65;;;;;;;2.88;100.00;98919.44;2188629;81;21059;-58
2022/12/31 00:31:14;;;;;;;65.15;31.42;;;;;;;2.90;100.00;98916.80;2188978;81;21523;-58
2022/12/31 00:34:16;;;;;;;69.22;32.15;;;;;;;2.91;100.00;98908.15;2188730;81;20992;-58
2022/12/31 00:37:17;;;;;;;64.22;30.55;;;;;;;2.94;100.00;98902.87;2188874;81;20988;-58
2022/12/31 00:40:18;;;;;;;63.13;30.88;;;;;;;2.85;100.00;98901.86;2188971;81;20980;-58
2022/12/31 00:43:20;;;;;;;64.95;30.15;;;;;;;2.82;100.00;98911.02;2188748;81;20956;-58
2022/12/31 00:46:21;;;;;;;63.87;29.87;;;;;;;2.90;100.00;98910.33;2188862;81;20980;-58
2022/12/31 00:49:23;;;;;;;66.47;30.10;;;;;;;2.93;100.00;98917.58;2176409;81;21045;-58
2022/12/31 00:52:25;;;;;;;66.37;30.50;;;;;;;2.97;100.00;98914.90;2172174;81;21647;-58
2022/12/31 00:55:26;;;;;;;63.80;29.75;;;;;;;2.96;100.00;98917.95;2172173;81;21323;-58
2022/12/31 00:58:27;;;;;;;61.83;28.77;;;;;;;2.95;100.00;98909.30;2172153;81;21123;-58
2022/12/31 01:01:29;;;;;;;60.83;28.80;;;;;;;2.98;100.00;98904.48;2172270;81;21037;-58
2022/12/31 01:04:30;;;;;;;60.23;28.83;;;;;;;2.99;100.00;98908.78;2172077;81;21029;-58
2022/12/31 01:07:32;;;;;;;61.95;31.05;;;;;;;2.98;100.00;98916.15;2172383;81;21583;-58
2022/12/31 01:13:36;;;;;;;62.35;29.52;;;;;;;3.03;100.00;98919.47;2161850;82;20981;-58
2022/12/31 01:16:38;;;;;;;60.23;29.27;;;;;;;3.11;100.00;98909.70;2172489;81;20973;-59
2022/12/31 01:19:39;;;;;;;58.73;28.17;;;;;;;3.07;100.00;98904.20;2172258;81;21048;-59
2022/12/31 01:22:41;;;;;;;64.15;29.00;;;;;;;3.05;100.00;98903.41;2172450;81;21580;-59
2022/12/31 01:25:43;;;;;;;62.50;28.57;;;;;;;3.06;100.00;98908.14;2172241;81;20933;-59
2022/12/31 01:28:45;;;;;;;;;;;;;;;3.06;100.00;98902.53;2175099;82;20972;-58
2022/12/31 01:31:46;;;;;;;61.53;29.23;;;;;;;3.04;100.00;98895.23;2172247;81;20120;-58
2022/12/31 01:34:48;;;;;;;57.93;28.27;;;;;;;3.08;100.00;98889.53;2172326;81;21036;-58
2022/12/31 01:37:49;;;;;;;58.67;27.77;;;;;;;3.10;100.00;98886.42;2172561;81;21063;-58
2022/12/31 01:40:51;;;;;;;56.15;27.75;;;;;;;3.19;100.00;98895.24;2172486;81;21806;-58
2022/12/31 01:43:53;;;;;;;62.90;29.00;;;;;;;3.20;100.00;98888.30;2172243;81;21080;-58
2022/12/31 01:46:55;;;;;;;59.45;28.27;;;;;;;3.21;100.00;98888.26;2172027;81;21082;-58
2022/12/31 01:49:57;;;;;;;57.73;27.30;;;;;;;3.29;100.00;98891.94;2185491;81;21364;-58
2022/12/31 01:52:58;;;;;;;58.55;28.38;;;;;;;3.31;100.00;98882.35;2189094;81;20991;-58
2022/12/31 01:56:00;;;;;;;59.35;28.35;;;;;;;3.36;100.00;98883.08;2188654;81;21004;-58
2022/12/31 01:59:01;;;;;;;58.40;27.22;;;;;;;3.37;100.00;98889.94;2188683;81;21527;-58
2022/12/31 02:02:02;;;;;;;58.73;28.05;;;;;;;3.48;100.00;98887.03;2188705;81;21039;-59
2022/12/31 02:05:04;;;;;;;63.02;27.58;;;;;;;3.52;100.00;98891.66;2188930;81;21451;-58
2022/12/31 02:08:05;;;;;;;56.70;27.30;;;;;;;3.56;100.00;98889.37;2188797;81;20953;-58
2022/12/31 02:11:07;;;;;;;54.13;26.30;;;;;;;3.60;100.00;98887.08;2188636;81;21139;-58
2022/12/31 02:14:08;;;;;;;55.85;26.45;;;;;;;3.67;100.00;98891.18;2188749;81;20972;-58
2022/12/31 02:17:10;;;;;;;56.23;26.70;;;;;;;3.72;100.00;98887.13;2188577;81;21020;-58
2022/12/31 02:20:11;;;;;;;57.77;27.63;;;;;;;3.73;100.00;98885.78;2188834;81;21607;-58
2022/12/31 02:23:13;;;;;;;55.55;24.80;;;;;;;3.77;100.00;98877.01;2188773;81;20972;-59
2022/12/31 02:26:14;;;;;;;58.85;26.55;;;;;;;3.81;100.00;98864.80;2188621;81;21084;-59
2022/12/31 02:29:15;;;;;;;56.30;25.60;;;;;;;3.82;100.00;98863.88;2188559;81;21103;-58
2022/12/31 02:32:17;;;;;;;55.60;26.05;;;;;;;3.90;100.00;98859.29;2188634;81;21075;-58
2022/12/31 02:35:18;;;;;;;56.92;25.08;;;;;;;3.96;100.00;98858.24;2188800;81;21490;-58
2022/12/31 02:38:20;;;;;;;55.60;25.20;;;;;;;3.94;100.00;98848.38;2188644;81;20992;-58
2022/12/31 02:44:25;;;;;;;56.77;25.88;;;;;;;3.99;100.00;98857.70;2171922;81;21016;-58
2022/12/31 02:47:27;;;;;;;55.03;25.93;;;;;;;4.03;100.00;98851.11;2188732;81;21123;-59
2022/12/31 02:50:28;;;;;;;59.13;26.50;;;;;;;4.03;100.00;98851.11;2188507;81;22102;-58
2022/12/31 02:53:30;;;;;;;54.65;25.60;;;;;;;4.04;100.00;98858.84;2188741;81;20968;-58
2022/12/31 02:56:31;;;;;;;51.42;25.00;;;;;;;4.05;100.00;98862.27;2188628;81;21036;-59
2022/12/31 03:02:36;;;;;;;50.58;24.18;;;;;;;4.16;100.00;98847.19;2171920;81;21016;-58
2022/12/31 03:05:37;;;;;;;51.07;24.00;;;;;;;4.29;100.00;98855.39;2188937;81;21035;-58
2022/12/31 03:09:11;;;;;;;51.73;24.10;;;;;;;4.36;100.00;98846.48;2188871;81;20945;-58
2022/12/31 03:14:46;;;;;;;50.48;24.37;;;;;;;4.40;100.00;98829.06;2171793;81;21000;-58
2022/12/31 03:17:47;;;;;;;50.43;22.63;;;;;;;4.36;100.00;98817.92;2188874;81;21032;-58
2022/12/31 03:26:55;;;;;;;42.95;20.62;;;;;;;4.41;100.00;98828.14;2171774;81;21007;-58
2022/12/31 03:29:56;;;;;;;46.80;20.77;;;;;;;4.45;100.00;98828.43;2188738;81;21574;-58
2022/12/31 03:32:58;;;;;;;47.45;20.62;;;;;;;4.43;100.00;98825.05;2188497;81;21162;-58
2022/12/31 03:35:59;;;;;;;44.03;20.02;;;;;;;4.42;100.00;98813.80;2188552;81;21047;-58
2022/12/31 03:39:01;;;;;;;42.78;19.80;;;;;;;4.43;100.00;98837.58;2188839;81;20985;-58
2022/12/31 03:42:02;;;;;;;44.88;20.68;;;;;;;4.48;100.00;98842.59;2188327;81;21036;-58
2022/12/31 03:45:04;;;;;;;47.10;21.33;;;;;;;4.56;100.00;98842.34;2188746;81;21273;-58
2022/12/31 03:48:05;;;;;;;46.70;20.75;;;;;;;4.62;100.00;98840.35;2188778;81;21024;-59
2022/12/31 03:51:07;;;;;;;46.15;20.82;;;;;;;4.67;100.00;98841.51;2188778;81;21597;-58
2022/12/31 03:54:09;;;;;;;46.65;20.15;;;;;;;4.69;100.00;98847.02;2188662;81;20945;-58
2022/12/31 03:57:11;;;;;;;49.48;22.25;;;;;;;4.80;100.00;98851.84;2188842;81;21468;-58
2022/12/31 04:00:12;;;;;;;48.58;21.17;;;;;;;4.92;100.00;98853.59;2188789;81;21032;-59
2022/12/31 04:03:14;;;;;;;46.42;22.25;;;;;;;4.94;100.00;98855.23;2188834;81;21479;-58
2022/12/31 04:06:16;;;;;;;50.50;22.52;;;;;;;5.06;100.00;98859.11;2188767;81;21020;-58
2022/12/31 04:09:17;;;;;;;57.73;25.20;;;;;;;5.14;100.00;98864.01;2188428;81;21182;-58
2022/12/31 04:12:19;;;;;;;55.85;22.85;;;;;;;5.22;100.00;98870.23;2188584;81;21043;-58
2022/12/31 04:15:20;;;;;;;51.50;22.55;;;;;;;5.30;100.00;98867.73;2188660;81;20979;-58
2022/12/31 04:18:22;;;;;;;54.40;23.67;;;;;;;5.27;100.00;98866.55;2188701;81;21590;-58
2022/12/31 04:21:23;;;;;;;50.95;22.65;;;;;;;5.29;100.00;98869.93;2188939;81;20986;-58
2022/12/31 04:24:24;;;;;;;63.45;24.20;;;;;;;5.38;100.00;98864.81;2188693;81;20997;-58
2022/12/31 04:27:26;;;;;;;54.33;23.70;;;;;;;5.42;100.00;98870.77;2188843;81;21044;-58
2022/12/31 04:30:27;;;;;;;48.20;21.07;;;;;;;5.53;100.00;98873.77;2188634;81;21035;-58
2022/12/31 04:33:29;;;;;;;45.98;19.48;;;;;;;5.55;100.00;98875.87;2188904;81;21476;-58
2022/12/31 04:36:31;;;;;;;45.23;20.88;;;;;;;5.57;100.00;98875.80;2188828;81;21527;-58
2022/12/31 04:39:32;;;;;;;48.60;20.75;;;;;;;5.56;100.00;98882.77;2188783;81;20973;-58
2022/12/31 04:42:33;;;;;;;41.30;19.95;;;;;;;5.63;100.00;98887.27;2188776;81;21486;-58
2022/12/31 04:45:35;;;;;;;42.05;18.27;;;;;;;5.70;100.00;98891.31;2188975;81;21004;-58
2022/12/31 04:48:36;;;;;;;41.88;19.35;;;;;;;5.75;100.00;98889.39;2186658;81;21016;-59
2022/12/31 04:51:38;;;;;;;43.85;18.75;;;;;;;5.78;100.00;98887.95;2172284;81;20984;-58
2022/12/31 04:54:40;;;;;;;40.23;18.32;;;;;;;5.87;100.00;98891.47;2172359;81;20993;-58
2022/12/31 04:57:41;;;;;;;43.52;18.07;;;;;;;5.93;100.00;98890.84;2172527;81;20984;-58
2022/12/31 05:00:44;;;;;;;43.15;19.37;;;;;;;5.96;100.00;98893.31;2172313;81;20972;-58
2022/12/31 05:03:46;;;;;;;42.90;18.62;;;;;;;5.97;100.00;98891.12;2161772;82;21037;-58
2022/12/31 05:06:47;;;;;;;46.08;20.25;;;;;;;5.93;100.00;98895.59;2172524;81;21068;-58
2022/12/31 05:09:49;;;;;;;42.83;18.27;;;;;;;5.86;100.00;98909.77;2172027;82;21065;-58
2022/12/31 05:12:50;;;;;;;39.63;16.15;;;;;;;5.92;100.00;98902.16;2172131;81;21083;-58
2022/12/31 05:15:52;;;;;;;35.92;15.78;;;;;;;6.00;100.00;98896.22;2172337;81;21021;-58
2022/12/31 05:18:53;;;;;;;36.63;15.28;;;;;;;6.14;100.00;98883.95;2172193;81;21088;-58
2022/12/31 05:24:58;;;;;;;36.17;15.10;;;;;;;6.53;100.00;98885.75;2161862;82;20954;-58
2022/12/31 05:28:00;;;;;;;44.13;21.00;;;;;;;6.57;100.00;98884.71;2172390;81;21051;-59
2022/12/31 05:31:01;;;;;;;35.63;13.25;;;;;;;6.66;100.00;98875.64;2172079;81;21716;-58
2022/12/31 05:34:03;;;;;;;33.45;13.93;;;;;;;6.71;100.00;98877.56;2172303;81;21012;-58
2022/12/31 05:37:04;;;;;;;32.90;13.32;;;;;;;6.83;100.00;98876.20;2172369;81;21029;-58
2022/12/31 05:40:06;;;;;;;32.60;13.50;;;;;;;6.81;100.00;98870.19;2172241;81;21032;-58
2022/12/31 05:43:07;;;;;;;29.42;12.43;;;;;;;6.89;100.00;98881.13;2172474;81;21487;-58
2022/12/31 05:46:09;;;;;;;31.70;11.75;;;;;;;7.01;100.00;98868.84;2172165;81;21037;-58
2022/12/31 05:49:10;;;;;;;32.25;12.88;;;;;;;7.06;100.00;98864.72;2172374;81;21586;-58
2022/12/31 05:52:11;;;;;;;32.17;12.68;;;;;;;7.20;100.00;98877.97;2172309;81;21057;-58
2022/12/31 05:55:13;;;;;;;30.77;12.05;;;;;;;7.26;100.00;98859.88;2172208;81;20945;-58
2022/12/31 05:58:15;;;;;;;37.57;13.87;;;;;;;7.20;100.00;98854.49;2172324;82;21108;-58
2022/12/31 06:01:16;;;;;;;29.02;11.80;;;;;;;7.27;100.00;98880.69;2172241;81;21064;-58
2022/12/31 06:04:18;;;;;;;30.65;11.78;;;;;;;7.32;100.00;98877.85;2172278;81;20980;-58
2022/12/31 06:07:19;;;;;;;28.17;10.23;;;;;;;7.38;100.00;98880.63;2172098;81;21038;-58
2022/12/31 06:10:20;;;;;;;26.25;10.30;;;;;;;7.47;100.00;98882.83;2172008;81;21552;-58
2022/12/31 06:13:22;;;;;;;31.80;12.00;;;;;;;7.53;100.00;98879.05;2172207;81;21025;-58
2022/12/31 06:16:23;;;;;;;32.50;12.58;;;;;;;7.57;100.00;98877.55;2172078;81;21054;-58
2022/12/31 06:19:25;;;;;;;28.55;10.28;;;;;;;7.62;100.00;98877.32;2172220;81;21013;-58
2022/12/31 06:22:26;;;;;;;33.27;12.37;;;;;;;7.68;100.00;98863.13;2171999;82;21120;-58
2022/12/31 06:25:28;;;;;;;26.50;10.43;;;;;;;7.72;100.00;98868.13;2172116;81;21135;-58
2022/12/31 06:28:29;;;;;;;26.95;9.30;;;;;;;7.77;100.00;98860.92;2172081;81;21068;-58
2022/12/31 06:31:31;;;;;;;29.20;9.65;;;;;;;7.85;100.00;98888.42;2172056;81;21547;-58
2022/12/31 06:34:32;;;;;;;25.65;9.15;;;;;;;7.86;100.00;98895.31;2172038;81;21041;-58
2022/12/31 06:37:34;;;;;;;27.65;10.58;;;;;;;7.94;100.00;98904.94;2172052;81;21060;-59
2022/12/31 06:40:35;;;;;;;26.70;9.43;;;;;;;7.94;100.00;98904.50;2172071;81;21019;-58
2022/12/31 06:43:36;;;;;;;26.70;9.48;;;;;;;7.95;100.00;98914.00;2172297;81;21056;-58
2022/12/31 06:46:38;;;;;;;28.95;9.93;;;;;;;8.11;100.00;98913.26;2172031;82;21029;-59
2022/12/31 06:49:40;;;;;;;26.97;9.47;;;;;;;8.07;100.00;98906.02;2172032;81;21100;-58
2022/12/31 06:52:41;;;;;;;32.75;10.93;;;;;;;8.12;100.00;98909.26;2171717;81;21723;-59
2022/12/31 06:55:43;;;;;;;25.43;9.15;;;;;;;8.24;100.00;98911.72;2171944;82;21568;-58
2022/12/31 06:58:45;;;;;;;29.30;10.33;;;;;;;8.24;100.00;98909.57;2172265;81;21045;-58
2022/12/31 07:01:46;;;;;;;23.25;8.55;;;;;;;8.26;100.00;98903.80;2172316;81;21539;-59
2022/12/31 07:04:48;;;;;;;27.90;9.93;;;;;;;8.33;100.00;98916.94;2172142;81;21012;-58
2022/12/31 07:07:49;;;;;;;25.52;9.85;;;;;;;8.37;100.00;98903.27;2172051;81;21080;-59
2022/12/31 07:10:51;;;;;;;33.30;11.30;;;;;;;8.41;100.00;98896.49;2172370;81;21033;-59
2022/12/31 07:13:52;;;;;;;38.95;13.08;;;;;;;8.41;100.00;98896.49;2171928;81;21506;-58
2022/12/31 07:16:54;;;;;;;33.67;11.83;;;;;;;8.52;100.00;98902.97;2172286;81;21515;-58
2022/12/31 07:19:55;;;;;;;33.63;11.95;;;;;;;8.57;100.00;98902.28;2171656;81;21033;-58
2022/12/31 07:22:56;;;;;;;28.90;10.05;;;;;;;8.61;100.00;98916.89;2172033;81;21524;-58
2022/12/31 07:25:58;;;;;;;29.35;9.65;;;;;;;8.59;100.00;98923.52;2172129;81;21041;-58
2022/12/31 07:28:59;;;;;;;29.32;10.65;;;;;;;8.65;100.00;98913.20;2172010;82;21021;-59
2022/12/31 07:32:01;;;;;;;28.30;10.55;;;;;;;8.67;100.00;98913.95;2172259;81;21004;-59
2022/12/31 07:35:03;;;;;;;30.02;10.43;;;;;;;8.74;100.00;98918.41;2172327;81;20990;-59
2022/12/31 07:38:04;;;;;;;27.33;10.57;;;;;;;8.77;100.00;98907.31;2172349;81;21065;-58
2022/12/31 07:41:06;;;;;;;26.90;9.98;;;;;;;8.80;100.00;98922.84;2172406;81;21017;-59
2022/12/31 07:44:07;;;;;;;28.10;10.60;;;;;;;8.82;100.00;98922.76;2172102;82;21052;-58
2022/12/31 07:47:08;;;;;;;25.23;9.20;;;;;;;8.84;100.00;98913.08;2172345;81;21568;-58
2022/12/31 07:50:10;;;;;;;24.02;9.10;;;;;;;8.90;100.00;98926.30;2178112;81;21091;-59
2022/12/31 07:53:11;;;;;;;25.25;9.43;;;;;;;8.93;100.00;98918.29;2188573;81;21075;-58
2022/12/31 07:56:13;;;;;;;24.57;8.43;;;;;;;8.98;100.00;98907.12;2188708;81;21091;-59
2022/12/31 07:59:14;;;;;;;25.43;8.13;;;;;;;9.07;100.00;98921.48;2188574;81;21021;-59
2022/12/31 08:02:16;;;;;;;22.87;7.60;;;;;;;9.13;100.00;98932.93;2188808;81;21511;-59
2022/12/31 08:05:17;;;;;;;23.38;7.90;;;;;;;9.20;100.00;98925.13;2188688;81;21047;-58
2022/12/31 08:08:18;;;;;;;24.98;8.08;;;;;;;9.26;100.00;98922.66;2188624;81;21072;-58
2022/12/31 08:11:20;;;;;;;24.75;8.40;;;;;;;9.33;100.00;98925.31;2188891;81;20980;-59
2022/12/31 08:14:22;;;;;;;24.10;8.70;;;;;;;9.41;100.00;98935.36;2188543;81;21039;-58
2022/12/31 08:17:23;;;;;;;26.95;9.60;;;;;;;9.45;100.00;98919.42;2189047;81;20980;-59
2022/12/31 08:20:24;;;;;;;23.05;7.90;;;;;;;9.52;100.00;98923.84;2188788;81;20945;-58
2022/12/31 08:23:26;;;;;;;25.40;8.33;;;;;;;9.62;100.00;98924.18;2188743;81;21443;-58
2022/12/31 08:26:27;;;;;;;23.18;8.08;;;;;;;9.61;100.00;98916.80;2188773;81;20995;-58
2022/12/31 08:29:29;;;;;;;25.97;8.55;;;;;;;9.62;100.00;98917.16;2188781;81;20984;-58
2022/12/31 08:32:30;;;;;;;24.02;7.37;;;;;;;9.61;100.00;98933.82;2188879;81;21027;-58
2022/12/31 08:35:32;;;;;;;25.12;9.28;;;;;;;9.66;100.00;98927.84;2188752;81;20980;-59
2022/12/31 08:38:33;;;;;;;26.27;9.48;;;;;;;9.66;100.00;98943.56;2188820;81;21000;-59
2022/12/31 08:41:34;;;;;;;24.77;8.80;;;;;;;9.74;100.00;98956.70;2188781;81;21008;-58
2022/12/31 08:44:36;;;;;;;28.42;8.70;;;;;;;9.84;100.00;98958.73;2188741;81;21514;-59
2022/12/31 08:47:37;;;;;;;23.80;7.77;;;;;;;9.88;100.00;98968.56;2189005;81;21039;-59
2022/12/31 08:50:39;;;;;;;22.50;7.50;;;;;;;9.97;100.00;98972.44;2188603;81;21550;-59
2022/12/31 08:53:40;;;;;;;20.48;6.87;;;;;;;10.00;100.00;98973.13;2188848;81;21015;-58
2022/12/31 08:56:42;;;;;;;22.62;7.25;;;;;;;10.08;100.00;98974.47;2188758;81;21031;-59
2022/12/31 08:59:43;;;;;;;20.35;6.55;;;;;;;10.14;100.00;98984.59;2188867;81;20953;-59
2022/12/31 09:02:45;;;;;;;24.27;8.30;;;;;;;10.26;100.00;98964.69;2188998;81;21002;-59
2022/12/31 09:05:46;;;;;;;24.85;7.60;;;;;;;10.39;100.00;98953.93;2188763;81;21086;-59
2022/12/31 09:08:48;;;;;;;23.32;8.20;;;;;;;10.48;100.00;98946.82;2188753;81;21024;-58
2022/12/31 09:11:50;;;;;;;23.50;8.05;;;;;;;10.56;100.00;98939.83;2188743;81;21028;-58
2022/12/31 09:14:51;;;;;;;22.58;7.80;;;;;;;10.60;100.00;98951.80;2188815;81;21052;-59
2022/12/31 09:17:53;;;;;;;23.87;7.85;;;;;;;10.68;100.00;98949.58;2188730;81;21032;-59
2022/12/31 09:20:54;;;;;;;22.73;7.67;;;;;;;10.73;100.00;98954.55;2188952;81;21446;-59
2022/12/31 09:23:56;;;;;;;22.93;7.58;;;;;;;10.75;100.00;98961.88;2188705;81;20980;-59
2022/12/31 09:26:57;;;;;;;24.70;8.10;;;;;;;10.78;100.00;98961.69;2188722;81;21576;-59
2022/12/31 09:29:58;;;;;;;21.40;6.42;;;;;;;10.80;100.00;98965.05;2188840;81;21004;-59
2022/12/31 09:33:00;;;;;;;30.77;9.45;;;;;;;10.91;100.00;98951.30;2188562;81;21075;-59
2022/12/31 09:36:02;;;;;;;19.80;6.17;;;;;;;10.95;100.00;98947.56;2188782;81;20969;-59
2022/12/31 09:39:03;;;;;;;53.52;16.80;;;;;;;10.92;100.00;98938.56;2188830;81;20984;-59
2022/12/31 09:42:05;;;;;;;24.33;7.60;;;;;;;11.08;100.00;98935.84;2189169;81;21016;-59
2022/12/31 09:45:06;;;;;;;21.23;6.30;;;;;;;11.14;100.00;98934.63;2188698;81;20945;-59
2022/12/31 09:48:08;;;;;;;24.05;7.37;;;;;;;11.30;100.00;98926.64;2188622;81;21060;-59
2022/12/31 09:51:09;;;;;;;20.70;6.92;;;;;;;11.44;100.00;98935.81;2188572;81;21053;-59
2022/12/31 09:54:11;;;;;;;22.40;6.72;;;;;;;11.61;100.00;98932.13;2188873;81;21452;-59
2022/12/31 09:57:13;;;;;;;18.80;5.78;;;;;;;11.56;100.00;98932.39;2188535;81;21109;-59
2022/12/31 10:00:15;;;;;;;22.13;6.72;;;;;;;11.64;100.00;98936.31;2188590;81;21166;-59
2022/12/31 10:03:16;;;;;;;19.98;6.03;;;;;;;11.69;100.00;98929.83;2188644;81;21021;-59
2022/12/31 10:06:18;;;;;;;21.25;6.42;;;;;;;11.70;100.00;98935.47;2188673;81;21596;-59
2022/12/31 10:09:19;;;;;;;20.20;6.67;;;;;;;11.81;100.00;98927.36;2188352;81;21041;-59
2022/12/31 10:12:20;;;;;;;22.62;7.75;;;;;;;11.92;100.00;98922.25;2188624;81;20987;-59
2022/12/31 10:15:22;;;;;;;19.90;6.20;;;;;;;12.19;100.00;98903.02;2188901;81;20972;-59
2022/12/31 10:18:24;;;;;;;20.20;6.10;;;;;;;12.29;100.00;98925.13;2188899;81;21020;-58
2022/12/31 10:21:26;;;;;;;19.40;5.40;;;;;;;12.17;100.00;98906.21;2188925;81;20981;-59
2022/12/31 10:24:27;;;;;;;21.73;6.28;;;;;;;12.25;100.00;98902.61;2188898;81;21063;-59
2022/12/31 10:27:28;;;;;;;18.95;5.70;;;;;;;12.30;100.00;98911.05;2188760;81;21082;-59
2022/12/31 10:30:30;;;;;;;18.73;5.70;;;;;;;12.43;100.00;98901.38;2188535;81;21008;-59
2022/12/31 10:33:32;;;;;;;19.95;5.60;;;;;;;12.42;100.00;98895.73;2188628;81;21085;-59
2022/12/31 10:36:33;;;;;;;21.87;6.33;;;;;;;12.50;100.00;98886.03;2189146;81;21447;-59
2022/12/31 10:39:35;;;;;;;22.65;7.47;;;;;;;12.58;100.00;98894.22;2188891;81;21016;-59
2022/12/31 10:42:37;;;;;;;21.95;7.60;;;;;;;12.50;100.00;98900.95;2188964;81;21515;-59
2022/12/31 10:45:38;;;;;;;20.73;6.17;;;;;;;12.42;100.00;98860.71;2188596;81;20992;-59
2022/12/31 10:48:39;;;;;;;17.42;5.22;;;;;;;12.38;100.00;98900.00;2188855;81;21024;-59
2022/12/31 10:51:41;;;;;;;18.92;6.33;;;;;;;12.33;100.00;98897.69;2178402;81;20997;-58
2022/12/31 10:54:42;;;;;;;20.02;6.08;;;;;;;12.33;100.00;98889.80;2171937;81;21093;-59
2022/12/31 10:57:44;;;;;;;21.87;6.80;;;;;;;12.39;100.00;98897.27;2172304;82;21563;-59
2022/12/31 11:00:45;;;;;;;19.73;5.58;;;;;;;12.47;100.00;98890.19;2172272;81;21687;-59
2022/12/31 11:03:47;;;;;;;17.60;5.58;;;;;;;12.57;100.00;98876.77;2171987;82;21085;-59
2022/12/31 11:06:48;;;;;;;18.13;5.20;;;;;;;12.58;100.00;98887.64;2172388;82;21057;-59
2022/12/31 11:09:50;;;;;;;19.12;5.67;;;;;;;12.56;100.00;98872.45;2172253;81;21101;-59
2022/12/31 11:12:51;;;;;;;20.40;6.15;;;;;;;12.54;100.00;98873.49;2172500;81;21606;-59
2022/12/31 11:15:52;;;;;;;20.62;5.80;;;;;;;12.59;100.00;98888.50;2171994;81;21081;-59
2022/12/31 11:18:54;;;;;;;21.37;6.17;;;;;;;12.65;100.00;98880.19;2172024;81;21528;-59
2022/12/31 11:21:55;;;;;;;21.95;6.87;;;;;;;12.74;100.00;98886.59;2172154;81;21064;-59
2022/12/31 11:24:57;;;;;;;20.85;5.95;;;;;;;12.80;100.00;98884.85;2171637;81;21120;-59
2022/12/31 11:27:58;;;;;;;21.55;6.05;;;;;;;12.84;100.00;98899.48;2172249;81;20977;-59
2022/12/31 11:31:00;;;;;;;18.45;5.50;;;;;;;12.87;100.00;98891.86;2171965;81;21054;-59
2022/12/31 11:34:01;;;;;;;21.65;6.28;;;;;;;12.95;100.00;98878.52;2172202;81;21503;-59
2022/12/31 11:37:03;;;;;;;19.67;6.00;;;;;;;12.94;100.00;98870.73;2172208;81;21092;-59
2022/12/31 11:40:04;;;;;;;20.48;6.35;;;;;;;13.00;100.00;98885.64;2172134;82;21512;-58
2022/12/31 11:43:06;;;;;;;19.13;5.70;;;;;;;12.97;100.00;98870.06;2172169;81;21081;-59
2022/12/31 11:46:07;;;;;;;19.37;5.90;;;;;;;12.92;100.00;98855.05;2172485;81;21068;-59
2022/12/31 11:49:09;;;;;;;19.17;5.75;;;;;;;12.91;100.00;98862.57;2172319;81;21602;-59
2022/12/31 11:52:10;;;;;;;19.80;5.45;;;;;;;13.06;100.00;98863.30;2183677;81;20989;-59
2022/12/31 11:55:12;;;;;;;20.52;5.53;;;;;;;13.14;100.00;98854.36;2189029;81;21416;-59
2022/12/31 11:58:14;;;;;;;21.60;6.45;;;;;;;13.16;100.00;98877.98;2188662;81;21048;-59
2022/12/31 12:01:15;;;;;;;19.87;5.70;;;;;;;13.00;100.00;98876.42;2188892;81;21483;-59
2022/12/31 12:04:17;;;;;;;17.50;5.67;;;;;;;12.92;100.00;98882.70;2189216;81;21035;-59
2022/12/31 12:07:18;;;;;;;21.45;5.95;;;;;;;13.08;100.00;98877.19;2189060;81;20980;-59
2022/12/31 12:10:20;;;;;;;20.10;6.33;;;;;;;13.16;100.00;98857.75;2189411;81;20985;-59
2022/12/31 12:13:21;;;;;;;19.45;6.28;;;;;;;13.10;100.00;98855.56;2188870;81;20983;-59
2022/12/31 12:16:23;;;;;;;20.43;6.33;;;;;;;13.02;100.00;98853.11;2189266;81;21044;-59
2022/12/31 12:19:24;;;;;;;20.40;6.25;;;;;;;13.02;100.00;98849.16;2189001;81;21024;-59
2022/12/31 12:22:26;;;;;;;17.82;5.58;;;;;;;12.95;100.00;98840.84;2189024;81;21456;-59
2022/12/31 12:25:27;;;;;;;22.82;6.87;;;;;;;12.95;100.00;98844.79;2188496;81;21100;-59
2022/12/31 12:28:29;;;;;;;20.80;6.00;;;;;;;13.05;100.00;98843.67;2188773;81;20989;-59
2022/12/31 12:31:32;;;;;;;23.77;6.47;;;;;;;13.02;100.00;98851.30;2188900;81;21015;-59
2022/12/31 12:34:34;;;;;;;26.15;7.60;;;;;;;13.02;100.00;98861.00;2117776;83;21667;-59
2022/12/31 12:37:35;;;;;;;27.20;6.90;;;;;;;13.09;100.00;98848.59;2144131;83;20999;-59
2022/12/31 12:40:37;;;;;;;22.22;6.90;;;;;;;13.09;100.00;98848.59;2144252;83;21459;-59
2022/12/31 12:43:38;;;;;;;25.32;7.53;;;;;;;13.09;100.00;98851.72;2143843;83;20988;-59
2022/12/31 12:46:40;;;;;;;34.98;10.25;;;;;;;13.09;100.00;98843.82;2144177;83;21498;-59
2022/12/31 12:49:41;;;;;;;28.75;8.45;;;;;;;13.04;100.00;98842.80;2121319;84;21044;-60
2022/12/31 12:52:43;;;;;;;36.35;9.98;;;;;;;12.96;100.00;98830.20;2118250;84;21560;-59
2022/12/31 12:55:44;;;;;;;17.80;5.60;;;;;;;12.98;100.00;98836.18;2117408;84;21076;-59
2022/12/31 12:58:46;;;;;;;21.60;7.08;;;;;;;13.05;100.00;98834.45;2117812;84;21033;-59
2022/12/31 13:01:50;;;;;;;27.58;10.30;;;;;;;13.06;100.00;98826.89;2127395;83;21076;-59
2022/12/31 13:04:51;;;;;;;21.80;5.83;;;;;;;13.07;100.00;98837.80;2127236;84;20996;-59
2022/12/31 13:07:53;;;;;;;23.05;6.40;;;;;;;13.06;100.00;98838.75;2127567;83;21004;-59
2022/12/31 13:10:55;;;;;;;19.85;5.35;;;;;;;12.98;100.00;98834.86;2127280;83;20969;-59
2022/12/31 13:13:57;;;;;;;;;;;;;;;12.99;100.00;98837.88;2129619;83;21238;-58
2022/12/31 13:16:58;;;;;;;20.97;6.00;;;;;;;12.96;100.00;98843.36;2127238;84;20105;-59
2022/12/31 13:20:00;;;;;;;26.33;7.90;;;;;;;12.94;100.00;98841.33;2127758;84;21576;-59
2022/12/31 13:23:01;;;;;;;28.00;9.80;;;;;;;12.96;100.00;98846.48;2127503;83;20989;-59
2022/12/31 13:26:03;;;;;;;35.20;11.50;;;;;;;12.98;100.00;98841.94;2127537;84;21554;-59
2022/12/31 13:29:04;;;;;;;38.57;11.27;;;;;;;13.12;100.00;98829.95;2127592;84;21057;-59
2022/12/31 13:32:06;;;;;;;41.10;11.95;;;;;;;13.09;100.00;98848.59;2127236;84;21192;-59
2022/12/31 13:35:07;;;;;;;42.45;12.53;;;;;;;13.04;100.00;98841.49;2127438;84;21003;-59
2022/12/31 13:38:09;;;;;;;29.42;9.00;;;;;;;13.05;100.00;98862.93;2127402;83;20966;-59
2022/12/31 13:41:10;;;;;;;25.27;8.30;;;;;;;13.03;100.00;98865.30;2127688;83;21134;-59
2022/12/31 13:44:12;;;;;;;27.22;9.03;;;;;;;13.01;100.00;98865.41;2127499;83;20984;-59
2022/12/31 13:47:13;;;;;;;29.87;9.85;;;;;;;12.97;100.00;98859.53;2127765;83;21563;-59
2022/12/31 13:50:15;;;;;;;36.47;14.07;;;;;;;13.05;100.00;98867.37;2127494;84;21032;-59
2022/12/31 13:53:16;;;;;;;30.97;9.63;;;;;;;13.03;100.00;98860.03;2127605;84;21515;-59
2022/12/31 13:56:17;;;;;;;22.30;6.80;;;;;;;13.00;100.00;98865.03;2127830;84;20978;-59
2022/12/31 13:59:19;;;;;;;24.77;8.17;;;;;;;12.99;100.00;98861.56;2127827;84;21104;-59
2022/12/31 14:02:21;;;;;;;27.50;9.65;;;;;;;12.96;100.00;98866.22;2127793;84;21670;-59
2022/12/31 14:05:24;;;;;;;24.75;7.42;;;;;;;12.99;100.00;98864.20;2127749;83;21044;-59
2022/12/31 14:08:26;;;;;;;23.10;7.05;;;;;;;13.02;100.00;98872.36;2099325;84;21108;-59
2022/12/31 14:11:27;;;;;;;35.20;12.58;;;;;;;12.94;100.00;98864.16;2127665;84;21036;-59
2022/12/31 14:14:29;;;;;;;43.17;18.23;;;;;;;13.00;100.00;98874.25;2127334;84;21139;-59
2022/12/31 14:17:30;;;;;;;31.60;9.70;;;;;;;13.00;100.00;98873.80;2128003;84;21495;-59